Time;durP1;ratioP1;P1;durP2;ratioP2;P2;SDS_P1;SDS_P2;PMS_P1;PMS_P2;Temp;Humidity;BMP_temperature;BMP_pressure;BME280_temperature;BME280_humidity;BME280_pressure;Samples;Min_cycle;Max_cycle;Signal;HPM_P1;HPM_P2
2023/07/02 00:01:47;;;;;;;19.00;2.83;;;44.70;17.90;;;;;;5011040;28;20061;-58
2023/07/02 00:04:19;;;;;;;7.43;2.33;;;44.60;17.70;;;;;;5014483;28;20017;-59
2023/07/02 00:06:48;;;;;;;5.80;2.30;;;44.60;17.60;;;;;;5017504;28;20009;-57
2023/07/02 00:09:16;;;;;;;6.53;2.03;;;44.60;17.50;;;;;;5012468;28;20071;-58
2023/07/02 00:11:45;;;;;;;7.82;2.05;;;44.60;18.40;;;;;;5013223;28;20045;-59
2023/07/02 00:14:13;;;;;;;7.35;3.95;;;44.60;18.30;;;;;;5010304;28;20018;-57
2023/07/02 00:16:43;;;;;;;6.07;2.90;;;44.60;17.40;;;;;;5011846;28;20159;-58
2023/07/02 00:19:10;;;;;;;6.25;2.03;;;44.60;17.60;;;;;;5010895;28;20050;-59
2023/07/02 00:21:37;;;;;;;9.80;2.33;;;44.50;17.30;;;;;;5011975;28;20045;-57
2023/07/02 00:24:04;;;;;;;8.05;2.15;;;44.40;17.00;;;;;;5011498;28;20025;-62
2023/07/02 00:26:30;;;;;;;4.95;1.88;;;44.40;16.90;;;;;;5011064;28;20101;-59
2023/07/02 00:28:57;;;;;;;4.60;1.98;;;44.30;16.70;;;;;;5011601;28;20014;-57
2023/07/02 00:31:24;;;;;;;6.00;2.03;;;44.30;16.90;;;;;;5010909;28;20173;-57
2023/07/02 00:33:50;;;;;;;5.47;1.85;;;44.30;16.80;;;;;;5010214;28;20037;-57
2023/07/02 00:36:17;;;;;;;10.98;2.60;;;44.30;17.40;;;;;;5017730;28;20018;-58
2023/07/02 00:38:47;;;;;;;12.00;2.20;;;44.20;17.60;;;;;;5013881;28;20018;-55
2023/07/02 00:41:14;;;;;;;5.68;2.45;;;44.20;17.40;;;;;;5010486;28;20109;-54
2023/07/02 00:43:43;;;;;;;7.38;2.10;;;44.00;17.40;;;;;;5011553;28;20021;-57
2023/07/02 00:46:22;;;;;;;9.95;2.33;;;44.00;16.60;;;;;;5009854;28;20108;-57
2023/07/02 00:48:51;;;;;;;22.50;2.95;;;44.00;16.70;;;;;;5010825;28;20438;-60
2023/07/02 00:51:20;;;;;;;82.65;7.97;;;43.90;17.10;;;;;;5014280;28;20056;-55
2023/07/02 00:53:47;;;;;;;7.13;2.25;;;43.90;17.20;;;;;;5010936;28;20017;-59
2023/07/02 00:56:14;;;;;;;5.28;2.10;;;43.80;15.80;;;;;;5012475;28;20022;-57
2023/07/02 00:58:48;;;;;;;4.35;1.90;;;43.70;16.50;;;;;;5020643;28;20363;-54
2023/07/02 01:01:19;;;;;;;4.80;2.22;;;43.60;17.40;;;;;;5009722;28;20399;-57
2023/07/02 01:03:57;;;;;;;4.50;2.00;;;43.60;17.30;;;;;;5018285;28;20020;-56
2023/07/02 01:06:27;;;;;;;3.20;1.90;;;43.50;17.90;;;;;;5017947;28;20573;-58
2023/07/02 01:08:59;;;;;;;5.13;1.92;;;43.50;17.50;;;;;;5017435;28;20080;-60
2023/07/02 01:11:45;;;;;;;6.90;2.30;;;43.50;17.00;;;;;;5014677;28;20485;-57
2023/07/02 01:14:42;;;;;;;10.18;1.92;;;43.40;17.90;;;;;;5015435;28;20050;-61
2023/07/02 01:17:09;;;;;;;13.02;2.10;;;43.30;17.20;;;;;;5016537;28;20025;-61
2023/07/02 01:19:58;;;;;;;4.50;2.28;;;43.30;17.70;;;;;;5013125;28;20117;-60
2023/07/02 01:22:27;;;;;;;7.38;1.90;;;43.20;17.60;;;;;;5011795;28;20041;-57
2023/07/02 01:24:54;;;;;;;7.18;2.30;;;43.20;17.30;;;;;;5010631;28;20501;-59
2023/07/02 01:27:21;;;;;;;6.63;2.20;;;43.20;17.40;;;;;;5009555;28;20021;-60
2023/07/02 01:29:51;;;;;;;24.60;16.13;;;43.10;17.50;;;;;;5010907;28;20013;-58
2023/07/02 01:32:17;;;;;;;22.48;16.50;;;43.10;17.60;;;;;;5009740;28;20486;-60
2023/07/02 01:34:48;;;;;;;5.75;2.63;;;43.10;17.10;;;;;;5011681;28;20470;-56
2023/07/02 01:37:16;;;;;;;23.33;14.40;;;43.10;17.60;;;;;;5012238;28;20026;-57
2023/07/02 01:39:43;;;;;;;24.60;13.55;;;43.00;16.80;;;;;;5010705;28;20462;-59
2023/07/02 01:42:17;;;;;;;20.10;13.98;;;43.00;16.90;;;;;;5012849;28;20108;-60
2023/07/02 01:44:45;;;;;;;8.15;2.30;;;42.90;17.10;;;;;;5011720;28;20374;-56
2023/07/02 01:47:12;;;;;;;6.38;2.20;;;43.00;17.60;;;;;;5009774;28;20006;-57
2023/07/02 01:49:38;;;;;;;9.60;2.30;;;43.00;18.00;;;;;;5009803;28;20060;-57
2023/07/02 01:52:05;;;;;;;9.60;2.70;;;42.90;18.60;;;;;;5010193;28;20470;-60
2023/07/02 01:54:34;;;;;;;10.13;2.83;;;42.80;17.90;;;;;;5013719;28;20026;-59
2023/07/02 01:57:01;;;;;;;17.33;2.78;;;42.60;18.00;;;;;;5012142;28;20017;-56
2023/07/02 01:59:27;;;;;;;15.02;2.67;;;42.60;18.10;;;;;;5016115;28;20018;-58
2023/07/02 02:01:53;;;;;;;10.48;2.30;;;42.50;18.10;;;;;;5016361;28;20021;-60
2023/07/02 02:04:20;;;;;;;9.38;2.72;;;42.50;18.20;;;;;;5015426;28;20104;-57
2023/07/02 02:06:46;;;;;;;13.57;2.60;;;42.40;21.40;;;;;;5015396;28;20018;-57
2023/07/02 02:09:13;;;;;;;7.03;2.53;;;42.20;20.90;;;;;;5017375;28;20049;-58
2023/07/02 02:11:42;;;;;;;12.23;2.67;;;42.10;19.10;;;;;;5015989;28;20026;-57
2023/07/02 02:14:09;;;;;;;11.02;2.35;;;42.00;19.70;;;;;;5014900;28;20072;-56
2023/07/02 02:16:35;;;;;;;16.80;2.63;;;41.90;19.10;;;;;;5017958;28;20502;-58
2023/07/02 02:19:02;;;;;;;14.05;2.65;;;41.90;19.20;;;;;;5015310;28;20052;-54
2023/07/02 02:21:29;;;;;;;33.03;16.20;;;41.80;18.90;;;;;;5014388;28;20046;-57
2023/07/02 02:23:56;;;;;;;32.13;16.92;;;41.80;19.40;;;;;;5014265;28;20041;-56
2023/07/02 02:26:22;;;;;;;30.25;17.77;;;41.60;20.70;;;;;;5014347;28;20482;-55
2023/07/02 02:28:50;;;;;;;28.83;15.93;;;41.50;19.90;;;;;;5012634;28;20026;-56
2023/07/02 02:31:16;;;;;;;27.50;17.05;;;41.30;19.80;;;;;;5013859;28;20010;-56
2023/07/02 02:33:43;;;;;;;34.80;16.30;;;41.30;19.20;;;;;;5015365;28;20022;-59
2023/07/02 02:36:10;;;;;;;33.58;15.75;;;41.20;19.20;;;;;;5016206;28;20108;-56
2023/07/02 02:38:37;;;;;;;9.63;2.58;;;41.10;19.20;;;;;;5019118;28;20513;-55
2023/07/02 02:41:04;;;;;;;18.40;2.93;;;41.00;19.30;;;;;;5014589;28;20025;-55
2023/07/02 02:43:30;;;;;;;37.67;3.72;;;41.10;19.60;;;;;;5014607;28;20415;-56
2023/07/02 02:45:56;;;;;;;17.27;2.90;;;41.00;19.70;;;;;;5011786;28;20018;-55
2023/07/02 02:48:23;;;;;;;27.77;3.50;;;40.90;19.90;;;;;;5013839;28;20045;-59
2023/07/02 02:50:49;;;;;;;25.65;4.10;;;40.80;20.30;;;;;;5022474;28;20378;-57
2023/07/02 02:53:16;;;;;;;24.38;3.47;;;40.70;20.10;;;;;;5013930;28;20108;-53
2023/07/02 02:55:42;;;;;;;27.02;3.75;;;40.50;19.80;;;;;;5018558;28;20037;-61
2023/07/02 02:58:08;;;;;;;32.10;4.15;;;40.50;19.80;;;;;;5017845;28;20029;-55
2023/07/02 03:00:35;;;;;;;16.05;3.67;;;40.40;20.10;;;;;;5017251;28;20021;-56
2023/07/02 03:03:02;;;;;;;23.55;3.60;;;40.30;20.20;;;;;;5019495;28;20104;-56
2023/07/02 03:05:29;;;;;;;28.50;4.05;;;40.30;20.70;;;;;;5019571;28;20109;-54
2023/07/02 03:07:55;;;;;;;33.60;4.22;;;40.20;21.00;;;;;;5021380;28;20013;-58
2023/07/02 03:10:22;;;;;;;20.27;3.20;;;40.10;21.40;;;;;;5017553;28;20018;-54
2023/07/02 03:12:48;;;;;;;27.92;3.80;;;40.00;21.70;;;;;;5019556;28;20022;-56
2023/07/02 03:15:17;;;;;;;25.42;4.32;;;39.90;22.10;;;;;;5014818;28;20493;-55
2023/07/02 03:17:43;;;;;;;25.90;4.32;;;39.80;22.40;;;;;;5014602;28;20167;-54
2023/07/02 03:20:10;;;;;;;28.33;4.25;;;39.70;22.60;;;;;;5013513;28;20076;-55
2023/07/02 03:22:36;;;;;;;20.92;3.90;;;39.60;22.80;;;;;;5014884;28;20034;-56
2023/07/02 03:25:03;;;;;;;31.45;4.57;;;39.50;23.50;;;;;;5015275;28;20032;-59
2023/07/02 03:27:29;;;;;;;33.17;5.25;;;39.30;24.10;;;;;;5011054;28;20093;-57
2023/07/02 03:29:56;;;;;;;49.13;6.95;;;39.20;24.40;;;;;;5011698;28;20018;-56
2023/07/02 03:32:22;;;;;;;48.47;6.95;;;39.00;24.50;;;;;;5012095;28;20056;-60
2023/07/02 03:34:49;;;;;;;22.65;6.65;;;39.00;25.10;;;;;;5014283;28;20048;-53
2023/07/02 03:37:15;;;;;;;32.92;6.25;;;38.80;25.30;;;;;;5013041;28;20014;-55
2023/07/02 03:39:41;;;;;;;24.95;5.13;;;38.60;25.80;;;;;;5013721;28;20450;-57
2023/07/02 03:42:08;;;;;;;23.85;4.80;;;38.50;26.00;;;;;;5014586;28;20063;-57
2023/07/02 03:44:34;;;;;;;26.23;4.30;;;38.40;26.10;;;;;;5012777;28;20400;-57
2023/07/02 03:47:01;;;;;;;41.08;4.53;;;38.30;26.30;;;;;;5013435;28;20057;-57
2023/07/02 03:49:27;;;;;;;26.20;4.40;;;38.20;25.90;;;;;;5013107;28;20053;-54
2023/07/02 03:51:53;;;;;;;38.70;5.28;;;38.20;26.20;;;;;;5016736;28;20046;-55
2023/07/02 03:54:20;;;;;;;35.80;5.03;;;38.10;26.40;;;;;;5017332;28;20064;-55
2023/07/02 03:56:46;;;;;;;30.38;5.10;;;38.00;26.20;;;;;;5010791;28;20095;-57
2023/07/02 03:59:13;;;;;;;30.52;4.75;;;37.90;25.90;;;;;;5010848;28;20057;-59
2023/07/02 04:01:39;;;;;;;35.53;5.20;;;37.80;25.90;;;;;;5011744;28;20085;-55
2023/07/02 04:04:05;;;;;;;28.20;5.25;;;37.70;25.90;;;;;;5012751;28;20537;-54
2023/07/02 04:06:34;;;;;;;36.08;5.57;;;37.70;26.00;;;;;;5013236;28;20441;-54
2023/07/02 04:09:00;;;;;;;36.75;5.82;;;37.60;26.10;;;;;;5013222;28;20056;-59
2023/07/02 04:11:27;;;;;;;21.65;5.57;;;37.60;25.90;;;;;;5012540;28;20064;-58
2023/07/02 04:13:53;;;;;;;25.15;5.53;;;37.60;25.70;;;;;;5011204;28;20101;-56
2023/07/02 04:16:19;;;;;;;28.17;4.85;;;37.50;25.60;;;;;;5013824;28;20090;-54
2023/07/02 04:18:46;;;;;;;39.33;5.60;;;37.40;25.60;;;;;;5011785;28;20056;-54
2023/07/02 04:21:12;;;;;;;40.88;5.47;;;37.40;25.90;;;;;;5015567;28;20045;-60
2023/07/02 04:23:38;;;;;;;29.70;5.10;;;37.30;25.90;;;;;;5012847;28;20138;-57
2023/07/02 04:26:05;;;;;;;31.65;5.28;;;37.10;26.00;;;;;;5013484;28;20054;-54
2023/07/02 04:28:32;;;;;;;29.95;5.22;;;37.00;26.00;;;;;;5010270;28;20072;-59
2023/07/02 04:30:58;;;;;;;33.85;5.40;;;37.00;25.50;;;;;;5011036;28;20051;-57
2023/07/02 04:33:25;;;;;;;54.38;6.05;;;37.00;25.60;;;;;;5011172;28;20050;-57
2023/07/02 04:35:51;;;;;;;26.80;4.72;;;36.90;25.50;;;;;;5013525;28;20077;-63
2023/07/02 04:38:18;;;;;;;43.25;5.55;;;36.80;25.70;;;;;;5014019;28;20048;-56
2023/07/02 04:40:44;;;;;;;36.67;5.00;;;36.80;25.90;;;;;;5011148;28;20468;-60
2023/07/02 04:43:12;;;;;;;38.65;6.43;;;36.70;26.20;;;;;;5020408;28;20065;-54
2023/07/02 04:45:39;;;;;;;36.65;5.38;;;36.60;26.40;;;;;;5012122;28;20066;-56
2023/07/02 04:48:06;;;;;;;36.78;4.65;;;36.50;26.30;;;;;;5010062;28;20064;-53
2023/07/02 04:50:32;;;;;;;31.55;5.47;;;36.40;26.20;;;;;;5009516;28;20091;-57
2023/07/02 04:52:59;;;;;;;35.70;4.95;;;36.30;26.40;;;;;;5011195;28;20378;-55
2023/07/02 04:55:25;;;;;;;26.35;4.90;;;36.20;26.70;;;;;;5016195;28;20111;-53
2023/07/02 04:57:52;;;;;;;35.63;4.97;;;36.20;26.70;;;;;;5017438;28;20539;-55
2023/07/02 05:00:18;;;;;;;36.80;4.97;;;36.00;26.90;;;;;;5010145;28;20068;-57
2023/07/02 05:02:45;;;;;;;29.75;5.13;;;36.00;27.10;;;;;;5010463;28;20076;-58
2023/07/02 05:05:11;;;;;;;47.05;6.22;;;36.00;27.10;;;;;;5013088;28;20150;-57
2023/07/02 05:07:37;;;;;;;48.13;6.95;;;35.80;27.00;;;;;;5011375;28;20057;-57
2023/07/02 05:10:04;;;;;;;37.92;6.22;;;35.80;26.70;;;;;;5012736;28;20149;-55
2023/07/02 05:12:31;;;;;;;31.15;5.50;;;35.80;27.20;;;;;;5013533;28;20054;-52
2023/07/02 05:14:57;;;;;;;44.70;6.35;;;35.70;27.30;;;;;;5015205;28;20048;-57
2023/07/02 05:17:23;;;;;;;35.88;5.70;;;35.70;27.40;;;;;;5011067;28;20060;-57
2023/07/02 05:19:50;;;;;;;40.55;6.18;;;35.60;26.90;;;;;;5009270;28;20083;-58
2023/07/02 05:22:16;;;;;;;41.45;6.25;;;35.60;26.90;;;;;;5011724;28;20084;-57
2023/07/02 05:24:43;;;;;;;33.25;5.82;;;35.60;27.00;;;;;;5011172;28;20046;-57
2023/07/02 05:27:10;;;;;;;38.63;5.68;;;35.60;27.20;;;;;;5010134;28;20154;-61
2023/07/02 05:29:36;;;;;;;30.48;5.03;;;35.60;27.70;;;;;;5009504;28;20147;-58
2023/07/02 05:32:03;;;;;;;29.92;4.57;;;35.50;28.10;;;;;;5011605;28;20144;-58
2023/07/02 05:34:29;;;;;;;38.92;5.07;;;35.40;28.40;;;;;;5010911;28;20431;-59
2023/07/02 05:36:56;;;;;;;33.13;4.43;;;35.20;28.70;;;;;;5010217;28;20063;-54
2023/07/02 05:39:22;;;;;;;28.50;4.72;;;35.00;28.60;;;;;;5015146;28;20059;-58
2023/07/02 05:41:49;;;;;;;34.85;5.00;;;35.00;29.10;;;;;;5009839;28;20091;-60
2023/07/02 05:44:15;;;;;;;28.15;4.97;;;34.90;28.50;;;;;;5011148;28;20053;-57
2023/07/02 05:46:42;;;;;;;41.78;4.88;;;34.80;28.90;;;;;;5010922;28;20069;-54
2023/07/02 05:49:09;;;;;;;32.15;5.00;;;34.70;28.80;;;;;;5009371;28;20056;-55
2023/07/02 05:51:35;;;;;;;35.67;4.78;;;34.70;29.60;;;;;;5011253;28;20116;-60
2023/07/02 05:54:02;;;;;;;29.23;5.32;;;34.60;29.90;;;;;;5009858;28;20079;-60
2023/07/02 05:56:28;;;;;;;39.13;5.15;;;34.50;29.50;;;;;;5011853;28;20059;-57
2023/07/02 05:58:54;;;;;;;31.23;4.85;;;34.40;30.70;;;;;;5009618;28;20604;-59
2023/07/02 06:01:21;;;;;;;35.10;5.90;;;34.30;30.10;;;;;;5009239;28;20063;-58
2023/07/02 06:03:50;;;;;;;39.35;5.63;;;34.20;30.00;;;;;;5011044;28;20071;-62
2023/07/02 06:06:16;;;;;;;27.73;4.90;;;34.10;30.30;;;;;;5010188;28;20120;-61
2023/07/02 06:08:43;;;;;;;46.05;5.75;;;34.10;30.80;;;;;;5014561;28;20143;-59
2023/07/02 06:11:10;;;;;;;33.88;4.97;;;34.10;30.90;;;;;;5012605;28;20072;-61
2023/07/02 06:13:36;;;;;;;29.98;5.32;;;33.90;31.50;;;;;;5013147;28;20488;-59
2023/07/02 06:16:03;;;;;;;31.35;5.82;;;33.90;31.10;;;;;;5010539;28;20083;-56
2023/07/02 06:18:29;;;;;;;37.72;6.35;;;33.80;31.10;;;;;;5008763;28;20058;-59
2023/07/02 06:20:56;;;;;;;37.92;6.40;;;33.70;32.50;;;;;;5007629;28;20082;-57
2023/07/02 06:23:23;;;;;;;32.53;6.35;;;33.60;31.60;;;;;;5011564;28;20092;-55
2023/07/02 06:25:51;;;;;;;37.38;7.30;;;33.60;32.10;;;;;;5012420;28;20150;-59
2023/07/02 06:28:18;;;;;;;35.00;5.82;;;33.60;31.90;;;;;;5010587;28;20430;-56
2023/07/02 06:30:45;;;;;;;48.20;6.93;;;33.60;32.20;;;;;;5015107;28;20075;-58
2023/07/02 06:33:11;;;;;;;28.75;5.97;;;33.50;32.00;;;;;;5011272;28;20069;-57
2023/07/02 06:35:37;;;;;;;28.08;6.45;;;33.40;31.90;;;;;;5017195;28;20741;-59
2023/07/02 06:38:04;;;;;;;27.75;6.90;;;33.40;31.90;;;;;;5017769;28;20431;-60
2023/07/02 06:40:30;;;;;;;34.42;6.68;;;33.40;31.70;;;;;;5016154;28;20470;-56
2023/07/02 06:42:56;;;;;;;28.63;5.80;;;33.40;32.70;;;;;;5018776;28;20092;-58
2023/07/02 06:45:23;;;;;;;28.10;4.85;;;33.30;32.70;;;;;;5021015;28;20060;-60
2023/07/02 06:47:50;;;;;;;25.23;5.72;;;33.30;32.90;;;;;;5022767;28;20155;-58
2023/07/02 06:50:16;;;;;;;28.13;5.72;;;33.20;33.50;;;;;;5021998;28;20058;-60
2023/07/02 06:52:43;;;;;;;26.13;5.68;;;33.20;33.30;;;;;;5022351;28;20064;-57
2023/07/02 06:55:09;;;;;;;29.15;6.15;;;33.10;33.20;;;;;;5021781;28;20073;-55
2023/07/02 06:57:41;;;;;;;28.38;6.22;;;33.00;32.90;;;;;;5023229;28;20070;-57
2023/07/02 07:00:08;;;;;;;37.72;6.35;;;33.00;33.10;;;;;;5020505;28;20144;-62
2023/07/02 07:02:34;;;;;;;36.08;6.88;;;33.00;33.20;;;;;;5019388;28;20143;-60
2023/07/02 07:05:01;;;;;;;33.85;6.13;;;33.00;33.00;;;;;;5021013;28;20437;-59
2023/07/02 07:07:27;;;;;;;33.03;5.18;;;32.90;33.20;;;;;;5021894;28;20074;-59
2023/07/02 07:09:54;;;;;;;24.52;5.00;;;32.80;33.70;;;;;;5021977;28;20105;-59
2023/07/02 07:12:20;;;;;;;30.70;5.53;;;32.80;34.10;;;;;;5024953;28;20432;-57
2023/07/02 07:14:46;;;;;;;21.63;4.80;;;32.70;33.70;;;;;;5025218;28;20076;-56
2023/07/02 07:17:13;;;;;;;31.88;6.28;;;32.70;34.30;;;;;;5020232;28;20179;-59
2023/07/02 07:19:39;;;;;;;25.67;6.47;;;32.70;34.00;;;;;;5021131;28;20142;-58
2023/07/02 07:22:06;;;;;;;20.65;5.85;;;32.60;34.30;;;;;;5020927;28;20102;-58
2023/07/02 07:24:32;;;;;;;27.48;5.20;;;32.60;35.60;;;;;;5022497;28;20077;-61
2023/07/02 07:26:59;;;;;;;27.83;5.38;;;32.50;35.50;;;;;;5020576;28;20184;-58
2023/07/02 07:29:25;;;;;;;33.63;5.45;;;32.40;36.10;;;;;;5020721;28;20085;-58
2023/07/02 07:31:51;;;;;;;19.33;5.80;;;32.40;36.80;;;;;;5019797;28;20079;-61
2023/07/02 07:34:18;;;;;;;28.55;7.28;;;32.30;37.40;;;;;;5018415;28;20099;-59
2023/07/02 07:36:44;;;;;;;25.23;5.47;;;32.10;37.90;;;;;;5018975;28;20122;-57
2023/07/02 07:39:10;;;;;;;26.27;5.85;;;32.20;38.40;;;;;;5022941;28;20070;-57
2023/07/02 07:41:37;;;;;;;27.25;6.20;;;32.10;39.20;;;;;;5020871;28;20163;-59
2023/07/02 07:44:03;;;;;;;27.80;6.05;;;32.00;39.60;;;;;;5023500;28;20073;-59
2023/07/02 07:46:30;;;;;;;32.97;6.65;;;32.00;39.70;;;;;;5021868;28;20072;-59
2023/07/02 07:48:56;;;;;;;30.38;6.15;;;31.90;39.80;;;;;;5021094;28;20536;-59
2023/07/02 07:51:22;;;;;;;25.15;5.10;;;31.80;40.70;;;;;;5023872;28;20133;-57
2023/07/02 07:53:49;;;;;;;19.45;4.65;;;31.80;41.90;;;;;;5019356;28;20483;-56
2023/07/02 07:56:15;;;;;;;23.80;4.40;;;31.70;43.00;;;;;;5017241;28;20427;-58
2023/07/02 07:58:42;;;;;;;27.85;4.25;;;31.60;43.50;;;;;;5020796;28;20104;-53
2023/07/02 08:01:08;;;;;;;21.75;3.80;;;31.60;43.90;;;;;;5021117;28;20073;-57
2023/07/02 08:03:38;;;;;;;17.95;3.85;;;31.50;43.80;;;;;;5020640;28;20454;-57
2023/07/02 08:06:05;;;;;;;19.40;4.15;;;31.50;44.30;;;;;;5020934;28;20100;-56
2023/07/02 08:08:31;;;;;;;22.63;4.72;;;31.40;45.40;;;;;;5020762;28;20159;-58
2023/07/02 08:10:57;;;;;;;42.78;5.68;;;31.40;45.70;;;;;;5021852;28;20133;-54
2023/07/02 08:13:24;;;;;;;26.42;5.00;;;31.30;46.00;;;;;;5019712;28;20074;-58
2023/07/02 08:15:50;;;;;;;19.48;4.32;;;31.20;46.40;;;;;;5021239;28;20090;-56
2023/07/02 08:18:17;;;;;;;20.08;4.32;;;31.10;47.00;;;;;;5019484;28;20156;-55
2023/07/02 08:20:43;;;;;;;23.90;4.47;;;31.10;47.50;;;;;;5023337;28;20150;-59
2023/07/02 08:23:09;;;;;;;26.60;5.15;;;31.10;47.70;;;;;;5019635;28;20115;-57
2023/07/02 08:25:36;;;;;;;25.05;4.22;;;31.10;47.30;;;;;;5022372;28;20579;-57
2023/07/02 08:28:02;;;;;;;17.10;4.75;;;31.10;47.80;;;;;;5021861;28;20082;-56
2023/07/02 08:30:28;;;;;;;62.38;6.07;;;31.10;47.60;;;;;;5022150;28;20100;-58
2023/07/02 08:32:55;;;;;;;19.90;4.25;;;31.10;47.20;;;;;;5020519;28;20451;-55
2023/07/02 08:35:23;;;;;;;19.13;4.72;;;31.10;46.80;;;;;;5020639;28;20155;-55
2023/07/02 08:37:49;;;;;;;18.63;4.88;;;31.10;46.80;;;;;;5020897;28;20079;-57
2023/07/02 08:40:18;;;;;;;23.30;4.93;;;31.20;46.20;;;;;;5019116;28;20515;-55
2023/07/02 08:42:46;;;;;;;27.35;5.13;;;31.20;45.80;;;;;;5021442;28;20085;-54
2023/07/02 08:45:17;;;;;;;20.77;4.50;;;31.10;46.10;;;;;;5019584;28;20162;-59
2023/07/02 08:47:47;;;;;;;22.80;4.13;;;31.10;46.60;;;;;;5018986;28;20110;-58
2023/07/02 08:50:14;;;;;;;16.20;4.43;;;31.10;46.30;;;;;;5021558;28;20078;-56
2023/07/02 08:52:40;;;;;;;14.30;4.55;;;31.10;46.30;;;;;;5021455;28;20077;-58
2023/07/02 08:55:07;;;;;;;34.35;4.95;;;31.20;46.40;;;;;;5019836;28;20437;-56
2023/07/02 08:57:35;;;;;;;21.48;4.65;;;31.20;46.50;;;;;;5019968;28;20079;-54
2023/07/02 09:00:11;;;;;;;25.98;5.47;;;31.10;46.60;;;;;;5016390;28;20165;-55
2023/07/02 09:02:37;;;;;;;18.97;5.83;;;31.10;46.80;;;;;;5020125;28;20086;-57
2023/07/02 09:05:05;;;;;;;24.40;6.18;;;30.90;47.30;;;;;;5018233;28;20073;-54
2023/07/02 09:07:31;;;;;;;24.30;5.15;;;31.00;48.60;;;;;;5017742;28;20085;-56
2023/07/02 09:09:58;;;;;;;25.73;5.22;;;30.90;49.00;;;;;;5020703;28;20079;-57
2023/07/02 09:12:34;;;;;;;30.88;5.20;;;30.80;49.10;;;;;;5017402;28;20172;-56
2023/07/02 09:15:08;;;;;;;28.98;4.88;;;30.70;48.70;;;;;;5018622;28;20081;-58
2023/07/02 09:17:36;;;;;;;18.80;4.72;;;30.70;49.20;;;;;;5019327;28;20083;-56
2023/07/02 09:20:08;;;;;;;24.38;4.93;;;30.70;48.90;;;;;;5016232;28;20163;-55
2023/07/02 09:22:35;;;;;;;28.70;6.13;;;30.70;48.70;;;;;;5022268;28;20096;-54
2023/07/02 09:25:02;;;;;;;21.10;5.47;;;30.70;48.40;;;;;;5018214;28;20156;-53
2023/07/02 09:27:39;;;;;;;26.42;5.80;;;30.70;48.70;;;;;;5020142;28;20143;-57
2023/07/02 09:30:15;;;;;;;22.58;5.38;;;30.60;49.60;;;;;;5020627;28;20488;-56
2023/07/02 09:32:44;;;;;;;26.08;5.25;;;30.50;49.90;;;;;;5018649;28;20125;-56
2023/07/02 09:35:11;;;;;;;34.38;6.10;;;30.40;50.00;;;;;;5018257;28;20115;-60
2023/07/02 09:37:39;;;;;;;40.15;5.68;;;30.30;50.00;;;;;;5019991;28;20624;-57
2023/07/02 09:40:08;;;;;;;18.50;5.20;;;30.30;49.50;;;;;;5019236;28;20079;-53
2023/07/02 09:42:36;;;;;;;33.38;5.53;;;30.20;50.80;;;;;;5018802;28;20184;-56
2023/07/02 09:45:07;;;;;;;36.15;5.78;;;30.20;50.70;;;;;;5020307;28;20083;-57
2023/07/02 09:47:40;;;;;;;22.45;4.55;;;30.20;50.30;;;;;;5014502;28;20127;-55
2023/07/02 09:50:08;;;;;;;19.05;5.75;;;30.20;50.30;;;;;;5018380;28;20081;-56
2023/07/02 09:52:35;;;;;;;22.52;5.70;;;30.20;50.30;;;;;;5020461;28;20081;-57
2023/07/02 09:55:03;;;;;;;21.15;5.13;;;30.30;50.90;;;;;;5016291;28;20129;-52
2023/07/02 09:57:31;;;;;;;24.80;5.38;;;30.20;51.30;;;;;;5019347;28;20079;-58
2023/07/02 10:00:00;;;;;;;21.15;5.68;;;30.20;51.20;;;;;;5018958;28;20521;-53
2023/07/02 10:02:26;;;;;;;21.38;5.00;;;30.10;51.40;;;;;;5017204;28;20088;-57
2023/07/02 10:04:55;;;;;;;14.57;5.13;;;30.10;51.20;;;;;;5017694;28;20129;-55
2023/07/02 10:07:29;;;;;;;17.83;5.25;;;30.00;52.40;;;;;;5017435;28;20110;-57
2023/07/02 10:09:56;;;;;;;16.42;5.03;;;29.90;52.40;;;;;;5017966;28;20080;-55
2023/07/02 10:12:24;;;;;;;18.35;5.20;;;30.00;51.90;;;;;;5019803;28;20093;-57
2023/07/02 10:14:55;;;;;;;17.10;4.80;;;30.00;51.70;;;;;;5019896;28;20459;-56
2023/07/02 10:17:36;;;;;;;17.77;4.72;;;30.00;51.70;;;;;;5019716;28;20581;-57
2023/07/02 10:20:10;;;;;;;15.07;5.25;;;30.00;51.70;;;;;;5018810;28;20104;-57
2023/07/02 10:22:54;;;;;;;18.88;5.10;;;30.00;51.70;;;;;;5019405;28;20110;-50
2023/07/02 10:25:28;;;;;;;20.75;4.70;;;30.00;52.40;;;;;;5023245;28;20484;-57
2023/07/02 10:27:55;;;;;;;23.20;5.85;;;30.00;52.70;;;;;;5022861;28;20071;-58
2023/07/02 10:30:35;;;;;;;21.45;4.82;;;29.90;52.70;;;;;;5024472;28;20537;-57
2023/07/02 10:33:12;;;;;;;28.55;5.20;;;29.80;53.40;;;;;;5021943;28;20079;-53
2023/07/02 10:35:44;;;;;;;14.45;5.10;;;29.70;53.30;;;;;;5020616;28;20577;-57
2023/07/02 10:38:21;;;;;;;13.95;5.28;;;29.70;53.80;;;;;;5020952;28;20563;-55
2023/07/02 10:40:57;;;;;;;22.55;4.97;;;29.70;53.70;;;;;;5020882;28;20080;-56
2023/07/02 10:43:28;;;;;;;19.42;4.80;;;29.70;53.50;;;;;;5019348;28;20126;-57
2023/07/02 10:45:55;;;;;;;26.33;5.60;;;29.70;53.50;;;;;;5022835;28;20214;-58
2023/07/02 10:48:21;;;;;;;15.57;4.57;;;29.70;53.40;;;;;;5019742;28;20081;-58
2023/07/02 10:50:48;;;;;;;23.20;4.72;;;29.80;53.40;;;;;;5019362;28;20077;-52
2023/07/02 10:53:18;;;;;;;15.85;4.32;;;29.80;53.40;;;;;;5019890;28;20078;-57
2023/07/02 10:55:46;;;;;;;23.10;5.13;;;29.70;53.30;;;;;;5020898;28;20472;-53
2023/07/02 10:58:14;;;;;;;18.88;5.05;;;29.70;53.00;;;;;;5021367;28;20075;-58
2023/07/02 11:00:58;;;;;;;25.10;5.28;;;29.70;52.80;;;;;;5022571;28;20112;-56
2023/07/02 11:03:26;;;;;;;13.98;4.50;;;29.70;52.80;;;;;;5020097;28;20125;-56
2023/07/02 11:05:53;;;;;;;15.25;4.65;;;29.70;53.00;;;;;;5018566;28;20075;-60
2023/07/02 11:08:24;;;;;;;25.73;4.32;;;29.60;53.30;;;;;;5019141;28;20072;-54
2023/07/02 11:10:51;;;;;;;19.13;4.57;;;29.50;53.70;;;;;;5018473;28;20091;-55
2023/07/02 11:13:20;;;;;;;13.82;4.50;;;29.50;53.90;;;;;;5020210;28;20175;-56
2023/07/02 11:15:47;;;;;;;16.00;4.10;;;29.50;54.00;;;;;;5021989;28;20141;-53
2023/07/02 11:18:14;;;;;;;10.80;4.00;;;29.50;54.10;;;;;;5022776;28;20080;-58
2023/07/02 11:20:43;;;;;;;24.13;4.70;;;29.50;54.40;;;;;;5021358;28;20118;-55
2023/07/02 11:23:22;;;;;;;16.33;4.18;;;29.40;54.50;;;;;;5017615;28;20459;-56
2023/07/02 11:26:02;;;;;;;23.90;4.65;;;29.40;54.80;;;;;;5020040;28;20070;-57
2023/07/02 11:28:30;;;;;;;19.45;4.70;;;29.40;54.80;;;;;;5022537;28;20079;-55
2023/07/02 11:30:58;;;;;;;18.92;4.97;;;29.40;54.80;;;;;;5019779;28;20471;-60
2023/07/02 11:33:38;;;;;;;25.15;5.85;;;29.40;54.90;;;;;;5020768;28;20077;-56
2023/07/02 11:36:06;;;;;;;24.10;5.68;;;29.30;55.00;;;;;;5018890;28;20552;-55
2023/07/02 11:38:35;;;;;;;20.95;5.38;;;29.20;55.10;;;;;;5019344;28;20092;-57
2023/07/02 11:41:04;;;;;;;23.63;5.50;;;29.20;55.10;;;;;;5022495;28;20568;-57
2023/07/02 11:43:30;;;;;;;39.20;5.93;;;29.10;55.10;;;;;;5020775;28;20095;-57
2023/07/02 11:45:57;;;;;;;35.20;5.97;;;29.10;55.30;;;;;;5023855;28;20085;-60
2023/07/02 11:48:23;;;;;;;30.17;6.00;;;29.00;55.40;;;;;;5021446;28;20452;-55
2023/07/02 11:50:49;;;;;;;39.60;7.30;;;29.00;55.40;;;;;;5019572;28;20073;-56
2023/07/02 11:53:16;;;;;;;27.80;5.95;;;29.00;55.40;;;;;;5018267;28;20116;-57
2023/07/02 11:55:42;;;;;;;30.33;6.57;;;28.90;55.20;;;;;;5022223;28;20083;-59
2023/07/02 11:58:08;;;;;;;32.90;7.00;;;28.90;54.90;;;;;;5021141;28;20398;-59
2023/07/02 12:00:35;;;;;;;30.17;6.60;;;28.80;54.70;;;;;;5021726;28;20088;-55
2023/07/02 12:03:01;;;;;;;18.67;5.82;;;28.80;54.70;;;;;;5022964;28;20145;-58
2023/07/02 12:05:28;;;;;;;34.53;7.18;;;28.70;54.20;;;;;;5020284;28;20576;-54
2023/07/02 12:07:54;;;;;;;25.33;6.93;;;28.70;54.00;;;;;;5020933;28;20088;-56
2023/07/02 12:10:20;;;;;;;24.50;6.00;;;28.60;53.90;;;;;;5019831;28;20173;-59
2023/07/02 12:12:47;;;;;;;23.20;6.70;;;28.60;53.80;;;;;;5019690;28;20095;-59
2023/07/02 12:15:13;;;;;;;27.08;6.93;;;28.50;53.50;;;;;;5021185;28;20448;-55
2023/07/02 12:17:39;;;;;;;19.10;7.25;;;28.40;53.60;;;;;;5018522;28;20560;-58
2023/07/02 12:20:06;;;;;;;27.88;7.82;;;28.40;53.70;;;;;;5020874;28;20449;-58
2023/07/02 12:22:33;;;;;;;25.60;7.53;;;28.40;53.80;;;;;;5021231;28;20533;-58
2023/07/02 12:24:59;;;;;;;28.02;8.65;;;28.40;54.00;;;;;;5019333;28;20088;-55
2023/07/02 12:27:26;;;;;;;22.73;9.18;;;28.40;54.00;;;;;;5021938;28;20093;-58
2023/07/02 12:29:53;;;;;;;23.75;10.52;;;28.40;54.20;;;;;;5021397;28;20084;-59
2023/07/02 12:32:20;;;;;;;29.20;11.43;;;28.30;54.30;;;;;;5019513;28;20080;-54
2023/07/02 12:34:47;;;;;;;32.90;11.93;;;28.30;54.60;;;;;;5023255;28;20448;-56
2023/07/02 12:37:17;;;;;;;34.78;12.65;;;28.20;54.70;;;;;;5019714;28;20088;-57
2023/07/02 12:39:43;;;;;;;30.58;12.32;;;28.20;54.90;;;;;;5015802;28;20127;-56
2023/07/02 12:42:10;;;;;;;25.77;11.85;;;28.20;55.20;;;;;;5016047;28;20134;-59